Time;durP1;ratioP1;P1;durP2;ratioP2;P2;SDS_P1;SDS_P2;PMS_P1;PMS_P2;Temp;Humidity;BMP_temperature;BMP_pressure;BME280_temperature;BME280_humidity;BME280_pressure;Samples;Min_cycle;Max_cycle;Signal;HPM_P1;HPM_P2
2022/03/20 00:00:36;;;;;;;2.38;1.10;;;19.40;68.70;;;;;;4229764;28;20626;-75
2022/03/20 00:02:40;;;;;;;2.28;1.30;;;19.40;68.90;;;;;;4228994;28;20262;-75
2022/03/20 00:04:42;;;;;;;2.35;1.42;;;19.30;68.70;;;;;;4229416;28;20209;-75
2022/03/20 00:06:45;;;;;;;1.70;1.27;;;19.30;68.80;;;;;;4229840;28;20255;-75
2022/03/20 00:08:48;;;;;;;2.28;1.20;;;19.30;68.80;;;;;;4229575;28;20278;-75
2022/03/20 00:10:52;;;;;;;1.55;1.02;;;19.30;68.80;;;;;;4229340;28;20270;-75
2022/03/20 00:12:54;;;;;;;2.33;1.45;;;19.30;68.80;;;;;;4229193;28;20217;-75
2022/03/20 00:14:57;;;;;;;2.65;1.40;;;19.30;68.80;;;;;;4229107;28;20213;-75
2022/03/20 00:16:59;;;;;;;2.22;1.23;;;19.20;68.80;;;;;;4229230;28;20261;-75
2022/03/20 00:19:05;;;;;;;2.55;1.20;;;19.30;68.90;;;;;;4227253;28;20323;-75
2022/03/20 00:21:11;;;;;;;2.47;1.10;;;19.20;68.90;;;;;;4228846;28;20286;-75
2022/03/20 00:23:14;;;;;;;3.75;1.40;;;19.20;69.10;;;;;;4228217;28;20262;-74
2022/03/20 00:25:17;;;;;;;1.98;1.10;;;19.30;69.30;;;;;;4228923;28;20214;-75
2022/03/20 00:27:20;;;;;;;2.13;1.10;;;19.20;69.00;;;;;;4228759;28;20283;-74
2022/03/20 00:29:22;;;;;;;2.80;1.23;;;19.30;69.10;;;;;;4229360;28;20237;-75
2022/03/20 00:31:25;;;;;;;3.40;1.35;;;19.20;69.00;;;;;;4228584;28;20222;-75
2022/03/20 00:33:27;;;;;;;2.28;1.27;;;19.20;69.10;;;;;;4229200;28;20727;-74
2022/03/20 00:35:32;;;;;;;2.03;1.42;;;19.20;69.30;;;;;;4229325;28;20217;-75
2022/03/20 00:37:34;;;;;;;2.85;1.13;;;19.20;69.30;;;;;;4229041;28;20209;-75
2022/03/20 00:39:36;;;;;;;2.28;1.30;;;19.30;69.30;;;;;;4228838;28;20578;-75
2022/03/20 00:41:39;;;;;;;1.85;1.25;;;19.20;69.10;;;;;;4225419;28;20272;-75
2022/03/20 00:43:41;;;;;;;3.33;1.60;;;19.20;69.40;;;;;;4228128;28;20279;-75
2022/03/20 00:45:43;;;;;;;2.47;1.35;;;19.20;69.30;;;;;;4229295;28;20206;-75
2022/03/20 00:47:48;;;;;;;1.73;1.20;;;19.20;69.40;;;;;;4226251;28;20262;-75
2022/03/20 00:49:50;;;;;;;3.67;1.33;;;19.20;69.70;;;;;;4228898;28;20222;-74
2022/03/20 00:51:53;;;;;;;1.48;1.15;;;19.20;69.60;;;;;;4227816;28;20259;-74
2022/03/20 00:53:56;;;;;;;2.28;1.35;;;19.20;69.60;;;;;;4226674;28;20270;-74
2022/03/20 00:55:58;;;;;;;2.90;1.40;;;19.10;69.80;;;;;;4228996;28;20263;-74
2022/03/20 00:58:00;;;;;;;2.13;1.25;;;19.10;69.50;;;;;;4224167;28;20330;-75
2022/03/20 01:00:03;;;;;;;2.60;1.25;;;19.10;69.50;;;;;;4225097;28;20657;-75
2022/03/20 01:02:07;;;;;;;2.92;1.10;;;19.10;69.60;;;;;;4226437;28;20634;-75
2022/03/20 01:04:10;;;;;;;2.72;1.20;;;19.10;69.70;;;;;;4228167;28;20290;-74
2022/03/20 01:06:12;;;;;;;2.05;1.10;;;19.10;69.50;;;;;;4227196;28;20214;-75
2022/03/20 01:08:17;;;;;;;2.60;1.40;;;19.10;69.70;;;;;;4227939;28;20670;-75
2022/03/20 01:10:20;;;;;;;3.97;1.58;;;19.10;69.70;;;;;;4228599;28;20226;-75
2022/03/20 01:12:22;;;;;;;2.38;1.27;;;19.10;69.50;;;;;;4228438;28;20267;-75
2022/03/20 01:14:25;;;;;;;3.45;1.70;;;19.10;69.70;;;;;;4228199;28;20217;-74
2022/03/20 01:16:27;;;;;;;1.85;1.38;;;19.10;69.70;;;;;;4228571;28;20225;-74
2022/03/20 01:18:30;;;;;;;2.60;1.50;;;19.10;69.70;;;;;;4228198;28;20685;-75
2022/03/20 01:20:32;;;;;;;1.80;1.20;;;19.10;69.70;;;;;;4227132;28;20221;-75
2022/03/20 01:22:34;;;;;;;2.92;1.23;;;19.10;69.90;;;;;;4226868;28;20225;-74
2022/03/20 01:24:38;;;;;;;4.50;1.70;;;19.10;69.80;;;;;;4228034;28;20218;-75
2022/03/20 01:26:40;;;;;;;2.10;1.35;;;19.00;70.00;;;;;;4228614;28;20222;-75
2022/03/20 01:28:45;;;;;;;1.95;1.20;;;19.10;70.00;;;;;;4225465;28;20242;-74
2022/03/20 01:30:48;;;;;;;2.42;1.48;;;19.10;69.90;;;;;;4228390;28;20213;-75
2022/03/20 01:32:50;;;;;;;2.65;1.52;;;19.10;70.00;;;;;;4213701;28;20255;-75
2022/03/20 01:34:53;;;;;;;2.78;1.27;;;19.10;70.10;;;;;;4226219;28;20269;-74
2022/03/20 01:36:57;;;;;;;2.65;1.48;;;19.00;70.00;;;;;;4228625;28;20213;-75
2022/03/20 01:38:59;;;;;;;2.85;1.42;;;19.10;69.90;;;;;;4226227;28;20238;-74
2022/03/20 01:41:03;;;;;;;2.25;1.45;;;19.10;70.10;;;;;;4228385;28;20221;-74
2022/03/20 01:43:06;;;;;;;2.10;1.40;;;19.00;70.00;;;;;;4227750;28;20213;-74
2022/03/20 01:45:16;;;;;;;1.50;1.30;;;19.00;70.00;;;;;;4227768;28;20221;-74
2022/03/20 01:47:18;;;;;;;2.40;1.20;;;19.00;70.30;;;;;;4228755;28;20680;-74
2022/03/20 01:49:21;;;;;;;2.70;1.50;;;19.10;70.90;;;;;;4227041;28;20717;-75
2022/03/20 01:52:10;;;;;;;3.03;1.60;;;19.00;70.10;;;;;;4227986;28;20320;-74
2022/03/20 01:53:46;;;;;;;3.13;1.52;;;18.90;69.90;;;;;;4227225;28;20217;-74
2022/03/20 01:55:51;;;;;;;3.67;2.00;;;19.00;70.10;;;;;;4226320;28;20221;-74
2022/03/20 01:57:56;;;;;;;2.38;1.55;;;19.00;70.10;;;;;;4227944;28;20214;-75
2022/03/20 01:59:58;;;;;;;2.30;1.45;;;19.00;70.10;;;;;;4227368;28;20614;-74
2022/03/20 02:02:02;;;;;;;2.42;1.25;;;19.00;70.70;;;;;;4228140;28;20222;-74
2022/03/20 02:04:05;;;;;;;3.90;1.52;;;19.00;70.30;;;;;;4228143;28;20633;-74
2022/03/20 02:06:07;;;;;;;2.15;1.67;;;19.00;70.00;;;;;;4225824;28;20217;-74
2022/03/20 02:08:11;;;;;;;2.75;1.50;;;19.00;70.10;;;;;;4227941;28;20282;-74
2022/03/20 02:10:14;;;;;;;3.60;1.73;;;19.00;70.20;;;;;;4226209;28;20299;-74
2022/03/20 02:12:17;;;;;;;2.45;1.55;;;18.90;70.10;;;;;;4227333;28;20568;-74
2022/03/20 02:14:21;;;;;;;4.28;1.70;;;18.90;70.10;;;;;;4227836;28;20217;-75
2022/03/20 02:16:24;;;;;;;2.75;1.58;;;18.90;70.30;;;;;;4227776;28;20217;-74
2022/03/20 02:18:26;;;;;;;2.05;1.50;;;18.90;70.40;;;;;;4227689;28;20217;-74
2022/03/20 02:20:31;;;;;;;1.65;1.42;;;18.90;70.30;;;;;;4226874;28;20562;-75
2022/03/20 02:22:38;;;;;;;2.22;1.50;;;18.90;70.30;;;;;;4226148;28;20294;-74
2022/03/20 02:24:42;;;;;;;2.67;1.58;;;18.90;70.30;;;;;;4227820;28;20221;-74
2022/03/20 02:26:44;;;;;;;3.72;1.48;;;18.80;70.30;;;;;;4225820;28;20665;-75
2022/03/20 02:28:47;;;;;;;2.78;1.80;;;18.80;70.30;;;;;;4227485;28;20262;-74
2022/03/20 02:30:49;;;;;;;2.85;1.77;;;18.90;70.30;;;;;;4220205;28;20215;-74
2022/03/20 02:32:52;;;;;;;2.58;1.92;;;18.90;70.50;;;;;;4227113;28;20229;-74
2022/03/20 02:34:55;;;;;;;3.55;1.75;;;18.90;70.30;;;;;;4227967;28;20236;-74
2022/03/20 02:36:58;;;;;;;1.95;1.60;;;18.90;70.30;;;;;;4226252;28;20218;-74
2022/03/20 02:39:02;;;;;;;3.10;1.67;;;18.80;71.00;;;;;;4227473;28;20264;-75
2022/03/20 02:41:14;;;;;;;2.72;1.85;;;18.80;70.20;;;;;;4227293;28;20255;-74
2022/03/20 02:43:17;;;;;;;3.80;1.60;;;18.80;70.20;;;;;;4226245;28;20210;-75
2022/03/20 02:45:21;;;;;;;2.90;1.80;;;18.80;70.20;;;;;;4227826;28;20226;-74
2022/03/20 02:47:25;;;;;;;2.78;1.83;;;18.80;70.20;;;;;;4223445;28;20210;-74
2022/03/20 02:49:28;;;;;;;4.10;1.90;;;18.80;70.30;;;;;;4226529;28;20278;-75
2022/03/20 02:51:30;;;;;;;3.03;1.60;;;18.80;70.20;;;;;;4229413;28;20217;-75
2022/03/20 02:53:34;;;;;;;4.43;2.10;;;18.80;70.20;;;;;;4230575;28;20218;-75
2022/03/20 02:55:40;;;;;;;2.15;1.48;;;18.80;70.20;;;;;;4227642;28;20218;-75
2022/03/20 02:57:42;;;;;;;4.18;1.70;;;18.80;70.30;;;;;;4227889;28;20218;-74
2022/03/20 02:59:45;;;;;;;2.60;1.70;;;18.80;70.40;;;;;;4228581;28;20221;-75
2022/03/20 03:01:47;;;;;;;2.30;1.80;;;18.80;70.40;;;;;;4230503;28;20279;-75
2022/03/20 03:03:50;;;;;;;2.67;2.10;;;18.80;70.40;;;;;;4230261;28;20654;-75
2022/03/20 03:05:55;;;;;;;2.95;1.90;;;18.80;70.30;;;;;;4230136;28;20447;-75
2022/03/20 03:12:40;;;;;;;3.13;1.77;;;18.80;70.40;;;;;;4230864;28;20190;-75
2022/03/20 03:17:02;;;;;;;2.35;1.92;;;18.80;70.30;;;;;;4231033;28;20654;-75
2022/03/20 03:19:05;;;;;;;4.68;1.90;;;18.80;70.30;;;;;;4230339;28;20254;-75
2022/03/20 03:21:11;;;;;;;4.30;2.00;;;18.70;70.30;;;;;;4220450;28;20244;-75
2022/03/20 03:23:13;;;;;;;2.97;1.73;;;18.70;70.30;;;;;;4229473;28;20213;-75
2022/03/20 03:25:16;;;;;;;2.33;1.63;;;18.80;70.30;;;;;;4229750;28;20217;-75
2022/03/20 03:27:19;;;;;;;2.35;1.63;;;18.70;70.10;;;;;;4230225;28;20217;-75
2022/03/20 03:29:22;;;;;;;2.75;1.75;;;18.70;70.10;;;;;;4230253;28;20673;-75
2022/03/20 03:31:24;;;;;;;3.35;2.13;;;18.70;70.30;;;;;;4229730;28;20218;-74
2022/03/20 03:33:27;;;;;;;3.55;1.90;;;18.70;70.30;;;;;;4229618;28;20271;-74
2022/03/20 03:35:47;;;;;;;2.33;1.80;;;18.70;71.10;;;;;;4230237;28;20218;-74
2022/03/20 03:37:49;;;;;;;3.20;2.05;;;18.70;70.50;;;;;;4228248;28;20259;-75
2022/03/20 03:39:51;;;;;;;2.58;1.88;;;18.70;70.30;;;;;;4230235;28;20266;-75
2022/03/20 03:41:54;;;;;;;3.25;2.00;;;18.70;70.40;;;;;;4229666;28;20225;-75
2022/03/20 03:43:56;;;;;;;2.67;2.13;;;18.70;70.40;;;;;;4230059;28;20217;-75
2022/03/20 03:46:00;;;;;;;2.65;1.83;;;18.60;70.40;;;;;;4229298;28;20214;-74
2022/03/20 03:48:04;;;;;;;2.45;1.83;;;18.60;70.40;;;;;;4229807;28;20670;-75
2022/03/20 03:50:07;;;;;;;3.38;1.95;;;18.60;70.30;;;;;;4230046;28;20283;-75
2022/03/20 03:52:11;;;;;;;3.20;1.70;;;18.70;70.40;;;;;;4229109;28;20696;-74
2022/03/20 03:54:13;;;;;;;2.55;1.90;;;18.60;70.30;;;;;;4230265;28;20217;-75
2022/03/20 03:56:15;;;;;;;2.60;1.90;;;18.60;70.20;;;;;;4230228;28;20270;-75
2022/03/20 03:58:18;;;;;;;3.40;2.15;;;18.60;70.40;;;;;;4229507;28;20271;-74
2022/03/20 04:00:21;;;;;;;3.30;2.25;;;18.60;70.40;;;;;;4229816;28;20222;-75
2022/03/20 04:02:25;;;;;;;3.35;2.20;;;18.70;70.30;;;;;;4228501;28;20222;-75
2022/03/20 04:04:27;;;;;;;2.35;1.70;;;18.70;70.30;;;;;;4229637;28;20214;-74
2022/03/20 04:06:30;;;;;;;3.20;2.05;;;18.60;70.20;;;;;;4226949;28;20259;-75
2022/03/20 04:08:34;;;;;;;3.25;2.30;;;18.60;70.40;;;;;;4229613;28;20267;-74
2022/03/20 04:10:37;;;;;;;3.50;1.88;;;18.60;70.40;;;;;;4229609;28;20233;-74
2022/03/20 04:12:41;;;;;;;3.92;1.85;;;18.60;70.30;;;;;;4227054;28;20263;-75
2022/03/20 04:14:45;;;;;;;4.20;1.90;;;18.60;70.30;;;;;;4229562;28;20266;-75
2022/03/20 04:16:47;;;;;;;3.85;2.13;;;18.70;70.40;;;;;;4229136;28;20214;-74
2022/03/20 04:18:51;;;;;;;2.78;1.90;;;18.60;70.20;;;;;;4228381;28;20225;-75
2022/03/20 04:20:54;;;;;;;3.45;2.20;;;18.60;70.20;;;;;;4229498;28;20267;-75
2022/03/20 04:25:16;;;;;;;4.03;1.88;;;18.60;70.20;;;;;;4229942;28;20197;-75
2022/03/20 04:27:18;;;;;;;2.22;1.80;;;18.60;70.20;;;;;;4229317;28;20222;-75
2022/03/20 04:29:21;;;;;;;3.47;2.28;;;18.60;70.10;;;;;;4228295;28;20646;-75
2022/03/20 04:31:23;;;;;;;3.28;2.35;;;18.60;70.10;;;;;;4229191;28;20571;-74
2022/03/20 04:33:26;;;;;;;3.90;2.10;;;18.60;70.20;;;;;;4228153;28;20623;-75
2022/03/20 04:35:29;;;;;;;3.40;2.38;;;18.50;70.20;;;;;;4223626;28;20274;-74
2022/03/20 04:37:32;;;;;;;3.55;2.15;;;18.60;71.10;;;;;;4229304;28;20293;-75
2022/03/20 04:39:35;;;;;;;5.03;2.22;;;18.50;70.30;;;;;;4228739;28;20242;-74
2022/03/20 04:41:37;;;;;;;3.40;2.13;;;18.50;70.40;;;;;;4228951;28;20259;-75
2022/03/20 04:43:40;;;;;;;2.63;2.10;;;18.50;70.30;;;;;;4228691;28;20235;-75
2022/03/20 04:45:42;;;;;;;3.85;2.40;;;18.50;70.30;;;;;;4228785;28;20599;-75
2022/03/20 04:59:35;;;;;;;3.20;2.08;;;18.50;70.30;;;;;;4225963;28;20653;-75
2022/03/20 05:01:37;;;;;;;3.13;2.28;;;18.50;70.20;;;;;;4228774;28;20536;-75
2022/03/20 05:03:40;;;;;;;2.70;2.42;;;18.50;70.30;;;;;;4225905;28;20217;-74
2022/03/20 05:05:42;;;;;;;2.75;2.17;;;18.50;70.30;;;;;;4229419;27;20222;-74
2022/03/20 05:07:46;;;;;;;2.80;2.47;;;18.50;70.30;;;;;;4224363;28;20222;-75
2022/03/20 05:14:29;;;;;;;5.32;2.60;;;18.50;70.20;;;;;;4227712;28;20190;-74
2022/03/20 05:16:31;;;;;;;3.35;2.55;;;18.50;70.20;;;;;;4228448;28;20259;-74
2022/03/20 05:18:33;;;;;;;2.83;2.17;;;18.50;70.10;;;;;;4227993;28;20322;-75
2022/03/20 05:20:36;;;;;;;3.83;2.70;;;18.50;70.20;;;;;;4228245;28;20275;-74
2022/03/20 05:22:39;;;;;;;4.22;2.72;;;18.50;70.20;;;;;;4228628;28;20886;-74
2022/03/20 05:24:43;;;;;;;4.63;2.28;;;18.50;70.20;;;;;;4225974;28;20673;-75
2022/03/20 05:26:45;;;;;;;4.18;2.60;;;18.50;70.20;;;;;;4228347;28;20258;-75
2022/03/20 05:28:47;;;;;;;3.40;2.70;;;18.40;70.10;;;;;;4228157;28;20210;-74
2022/03/20 05:30:50;;;;;;;3.70;2.60;;;18.50;70.20;;;;;;4228133;28;20233;-74
2022/03/20 05:32:53;;;;;;;4.05;2.70;;;18.40;70.20;;;;;;4228825;28;20198;-75
2022/03/20 05:34:55;;;;;;;4.72;2.90;;;18.40;70.20;;;;;;4226526;28;20225;-74
2022/03/20 05:36:58;;;;;;;4.00;2.80;;;18.50;70.30;;;;;;4228067;28;20274;-74
2022/03/20 05:39:00;;;;;;;3.58;2.85;;;18.50;70.30;;;;;;4227977;28;20233;-75
2022/03/20 05:43:24;;;;;;;3.60;2.55;;;18.40;70.20;;;;;;4228407;28;20201;-74
2022/03/20 05:45:26;;;;;;;4.00;2.60;;;18.50;70.20;;;;;;4227333;28;20218;-74
2022/03/20 05:47:32;;;;;;;3.78;3.00;;;18.40;70.20;;;;;;4227732;28;20243;-75
2022/03/20 05:49:35;;;;;;;3.92;2.58;;;18.40;70.20;;;;;;4227475;28;20278;-75
2022/03/20 05:51:37;;;;;;;4.20;2.90;;;18.40;70.30;;;;;;4228067;28;20237;-74
2022/03/20 05:53:39;;;;;;;4.47;3.00;;;18.40;70.20;;;;;;4227339;28;20246;-74
2022/03/20 05:58:03;;;;;;;5.35;2.90;;;18.50;70.30;;;;;;4228542;28;21041;-75
2022/03/20 06:00:16;;;;;;;4.65;3.05;;;18.50;70.40;;;;;;4226580;28;20222;-74
2022/03/20 06:02:18;;;;;;;4.38;2.80;;;18.40;70.30;;;;;;4228003;28;20217;-74
2022/03/20 06:04:21;;;;;;;3.97;2.95;;;18.40;70.30;;;;;;4224710;28;20229;-74
2022/03/20 06:06:23;;;;;;;4.13;2.85;;;18.40;70.40;;;;;;4228009;28;20247;-74
2022/03/20 06:08:26;;;;;;;4.63;3.40;;;18.40;70.30;;;;;;4227879;28;20213;-74
2022/03/20 06:10:28;;;;;;;4.47;3.17;;;18.40;70.30;;;;;;4226815;28;20286;-74
2022/03/20 06:12:30;;;;;;;2.90;2.60;;;18.40;70.40;;;;;;4226374;28;20293;-74
2022/03/20 06:14:34;;;;;;;5.15;3.17;;;18.40;70.30;;;;;;4228093;28;20218;-74
2022/03/20 06:16:37;;;;;;;3.25;2.70;;;18.40;70.40;;;;;;4225667;28;21051;-76
2022/03/20 06:18:42;;;;;;;4.28;3.10;;;18.40;70.40;;;;;;4228094;28;20266;-74
2022/03/20 06:20:45;;;;;;;5.10;3.13;;;18.40;70.40;;;;;;4227147;28;20226;-75
2022/03/20 06:22:49;;;;;;;4.05;3.15;;;18.40;70.70;;;;;;4225299;28;20222;-74
2022/03/20 06:24:52;;;;;;;4.25;2.85;;;18.40;70.50;;;;;;4226982;28;20221;-75
2022/03/20 06:26:54;;;;;;;3.85;3.30;;;18.40;71.30;;;;;;4229850;28;20206;-74
2022/03/20 06:28:56;;;;;;;3.63;2.92;;;18.40;70.60;;;;;;4231107;28;20621;-74
2022/03/20 06:31:00;;;;;;;5.00;3.60;;;18.40;70.70;;;;;;4231368;28;20211;-74
2022/03/20 06:33:03;;;;;;;4.88;3.22;;;18.40;70.70;;;;;;4231486;28;20569;-75
2022/03/20 06:35:06;;;;;;;5.13;3.03;;;18.40;70.70;;;;;;4231298;28;20263;-74
2022/03/20 06:37:08;;;;;;;5.57;3.60;;;18.40;70.70;;;;;;4230807;28;20551;-74
2022/03/20 06:39:11;;;;;;;5.60;3.60;;;18.40;71.50;;;;;;4229759;28;20233;-74
2022/03/20 06:41:13;;;;;;;4.60;3.40;;;18.40;70.80;;;;;;4230795;28;20210;-74
2022/03/20 06:43:16;;;;;;;5.00;3.60;;;18.40;70.80;;;;;;4230812;28;20222;-74
2022/03/20 06:45:19;;;;;;;4.75;3.35;;;18.40;70.80;;;;;;4230863;28;20271;-74
2022/03/20 06:47:26;;;;;;;5.47;3.95;;;18.40;70.80;;;;;;4230533;28;20262;-74
2022/03/20 06:49:28;;;;;;;4.07;3.17;;;18.40;70.70;;;;;;4229712;28;20274;-74
2022/03/20 06:51:30;;;;;;;4.80;3.92;;;18.40;70.80;;;;;;4230349;28;20650;-75
2022/03/20 06:53:34;;;;;;;4.60;3.63;;;18.40;70.80;;;;;;4230589;28;20217;-75
2022/03/20 06:55:36;;;;;;;4.70;3.80;;;18.40;70.70;;;;;;4230461;28;20213;-74
2022/03/20 06:57:41;;;;;;;6.13;4.15;;;18.30;70.60;;;;;;4222607;27;20217;-74
2022/03/20 06:59:44;;;;;;;6.00;3.92;;;18.30;70.60;;;;;;4227780;28;20263;-74
2022/03/20 07:01:46;;;;;;;4.60;3.70;;;18.30;70.60;;;;;;4227771;28;20218;-74
2022/03/20 07:03:50;;;;;;;5.63;4.07;;;18.30;70.60;;;;;;4233636;27;20595;-74
2022/03/20 07:05:52;;;;;;;6.55;4.15;;;18.30;70.80;;;;;;4229513;28;20230;-74
2022/03/20 07:07:54;;;;;;;5.32;4.13;;;18.30;70.80;;;;;;4230966;28;20213;-74
2022/03/20 07:09:57;;;;;;;4.65;4.07;;;18.30;70.60;;;;;;4230500;28;20259;-74
2022/03/20 07:11:59;;;;;;;5.15;4.20;;;18.30;70.70;;;;;;4230129;28;20238;-74
2022/03/20 07:14:02;;;;;;;4.97;4.47;;;18.30;70.80;;;;;;4230864;28;20221;-74
2022/03/20 07:16:05;;;;;;;7.07;4.25;;;18.30;71.00;;;;;;4230447;28;20213;-74
2022/03/20 07:18:07;;;;;;;5.25;4.28;;;18.30;70.90;;;;;;4229572;28;20599;-74
2022/03/20 07:20:12;;;;;;;7.65;4.00;;;18.30;71.00;;;;;;4229872;28;20214;-74
2022/03/20 07:22:15;;;;;;;5.90;4.22;;;18.30;71.00;;;;;;4228761;28;20255;-74
2022/03/20 07:24:18;;;;;;;5.57;4.43;;;18.30;71.10;;;;;;4230319;28;20263;-74
2022/03/20 07:30:59;;;;;;;6.47;4.25;;;18.30;71.20;;;;;;4230584;28;20194;-74
2022/03/20 07:33:02;;;;;;;5.82;4.60;;;18.30;71.10;;;;;;4228976;28;20234;-74
2022/03/20 07:35:05;;;;;;;7.05;5.22;;;18.30;71.30;;;;;;4224685;28;20624;-74
2022/03/20 07:37:08;;;;;;;5.07;4.05;;;18.30;71.40;;;;;;4228715;28;20248;-74
2022/03/20 07:39:11;;;;;;;7.40;4.65;;;18.30;71.40;;;;;;4229955;28;20278;-74
2022/03/20 07:41:13;;;;;;;6.13;4.38;;;18.30;71.50;;;;;;4230435;28;20293;-74
2022/03/20 07:43:16;;;;;;;6.22;4.68;;;18.30;71.40;;;;;;4228759;28;20310;-74
2022/03/20 07:45:22;;;;;;;6.63;4.68;;;18.30;71.60;;;;;;4222727;28;20258;-75
2022/03/20 07:47:24;;;;;;;7.18;4.80;;;18.30;71.60;;;;;;4226484;28;20222;-74
2022/03/20 07:49:27;;;;;;;5.90;4.78;;;18.30;71.70;;;;;;4229605;28;20218;-75
2022/03/20 07:51:31;;;;;;;6.47;5.00;;;18.20;72.50;;;;;;4229766;28;20222;-74
2022/03/20 07:53:34;;;;;;;6.45;4.95;;;18.30;71.80;;;;;;4228417;28;20222;-74
2022/03/20 07:55:37;;;;;;;6.43;4.75;;;18.30;71.90;;;;;;4229013;28;20243;-74
2022/03/20 07:57:42;;;;;;;5.35;4.60;;;18.30;72.00;;;;;;4229519;28;20243;-74
2022/03/20 07:59:45;;;;;;;6.05;4.68;;;18.30;72.00;;;;;;4227348;28;20270;-74
2022/03/20 08:01:47;;;;;;;5.97;4.88;;;18.30;72.10;;;;;;4220928;28;20283;-74
2022/03/20 08:03:49;;;;;;;6.20;5.10;;;18.30;72.20;;;;;;4222701;27;20222;-74
2022/03/20 08:05:52;;;;;;;6.32;4.60;;;18.20;72.10;;;;;;4225359;28;20222;-75
2022/03/20 08:07:54;;;;;;;6.38;5.30;;;18.30;72.20;;;;;;4225896;28;20278;-74
2022/03/20 08:09:58;;;;;;;6.80;5.30;;;18.20;72.90;;;;;;4225731;28;20287;-74
2022/03/20 08:12:01;;;;;;;6.07;5.32;;;18.30;73.20;;;;;;4220981;28;20233;-74
2022/03/20 08:14:07;;;;;;;6.45;5.35;;;18.30;72.40;;;;;;4224692;28;20221;-74
2022/03/20 08:16:12;;;;;;;5.75;4.95;;;18.20;72.40;;;;;;4222085;28;20278;-75
2022/03/20 08:18:15;;;;;;;5.53;4.80;;;18.20;72.40;;;;;;4224297;28;20747;-74
2022/03/20 08:20:19;;;;;;;6.88;5.38;;;18.30;72.60;;;;;;4219645;28;20222;-74
2022/03/20 08:22:21;;;;;;;5.40;4.90;;;18.20;72.50;;;;;;4223202;28;20221;-75
2022/03/20 08:24:24;;;;;;;6.72;5.30;;;18.20;72.50;;;;;;4221941;28;20979;-74
2022/03/20 08:26:28;;;;;;;6.18;4.82;;;18.30;72.60;;;;;;4223426;28;20476;-74
2022/03/20 08:28:30;;;;;;;6.25;5.25;;;18.20;72.60;;;;;;4224468;28;20225;-74
2022/03/20 08:30:33;;;;;;;8.15;5.47;;;18.20;72.60;;;;;;4225119;28;20247;-75
2022/03/20 08:32:35;;;;;;;7.28;5.30;;;18.20;72.70;;;;;;4226195;28;20279;-74
2022/03/20 08:34:37;;;;;;;5.93;4.97;;;18.20;72.80;;;;;;4223754;28;20641;-75
2022/03/20 08:36:40;;;;;;;8.13;5.82;;;18.20;72.80;;;;;;4223684;28;20214;-75
2022/03/20 08:38:43;;;;;;;7.70;5.55;;;18.20;72.90;;;;;;4220954;28;20230;-74
2022/03/20 08:40:46;;;;;;;7.80;5.25;;;18.30;73.00;;;;;;4224002;28;20218;-74
2022/03/20 08:42:52;;;;;;;6.35;5.70;;;18.30;73.00;;;;;;4223587;27;20262;-74
2022/03/20 08:44:55;;;;;;;6.15;5.55;;;18.30;73.10;;;;;;4223779;28;20279;-74
2022/03/20 08:46:57;;;;;;;7.45;5.88;;;18.30;73.20;;;;;;4221586;28;20214;-74
2022/03/20 08:49:03;;;;;;;8.10;5.65;;;18.30;73.10;;;;;;4220906;28;20616;-74
2022/03/20 08:51:06;;;;;;;6.45;5.78;;;18.30;73.40;;;;;;4213864;28;20266;-74
2022/03/20 08:53:08;;;;;;;6.65;5.95;;;18.30;74.30;;;;;;4223707;28;20229;-74
2022/03/20 08:55:11;;;;;;;6.07;5.47;;;18.20;73.30;;;;;;4221066;28;20259;-75
2022/03/20 08:57:15;;;;;;;6.72;5.72;;;18.30;73.40;;;;;;4224571;28;20218;-74
2022/03/20 08:59:19;;;;;;;8.23;6.43;;;18.20;73.30;;;;;;4222855;27;20282;-74
2022/03/20 09:01:21;;;;;;;7.90;6.13;;;18.20;73.40;;;;;;4220181;28;20263;-74
2022/03/20 09:03:24;;;;;;;6.43;5.80;;;18.20;73.40;;;;;;4218851;28;20210;-74
2022/03/20 09:05:26;;;;;;;7.32;6.35;;;18.20;73.40;;;;;;4221430;28;20226;-74
2022/03/20 09:07:29;;;;;;;6.82;5.93;;;18.20;73.40;;;;;;4219957;28;20272;-74
2022/03/20 09:09:31;;;;;;;9.45;6.38;;;18.20;74.30;;;;;;4219842;28;20992;-74
2022/03/20 09:11:34;;;;;;;6.72;6.07;;;18.20;73.50;;;;;;4221793;28;20222;-74
2022/03/20 09:13:36;;;;;;;7.40;6.65;;;18.20;73.80;;;;;;4220637;27;20679;-74
2022/03/20 09:15:40;;;;;;;7.93;6.78;;;18.20;73.70;;;;;;4222378;28;20246;-74
2022/03/20 09:20:04;;;;;;;7.18;6.47;;;18.20;73.80;;;;;;4208927;28;20190;-74
2022/03/20 09:22:07;;;;;;;6.25;5.60;;;18.30;74.00;;;;;;4207472;28;20222;-74
2022/03/20 09:24:12;;;;;;;8.25;6.25;;;18.20;73.90;;;;;;4219403;28;20240;-74
2022/03/20 09:26:15;;;;;;;7.32;5.93;;;18.20;74.00;;;;;;4223687;28;20221;-74
2022/03/20 09:28:17;;;;;;;8.27;6.65;;;18.30;74.10;;;;;;4222820;28;20221;-74
2022/03/20 09:30:21;;;;;;;7.38;6.35;;;18.20;74.10;;;;;;4223627;28;20213;-74
2022/03/20 09:32:25;;;;;;;7.50;6.55;;;18.30;74.30;;;;;;4221854;28;20295;-74
2022/03/20 09:34:31;;;;;;;7.30;6.40;;;18.30;74.30;;;;;;4223950;28;20642;-74
2022/03/20 09:36:33;;;;;;;7.22;6.10;;;18.30;74.30;;;;;;4223065;28;20596;-74
2022/03/20 09:38:36;;;;;;;7.80;6.13;;;18.20;74.20;;;;;;4224228;28;20237;-74
2022/03/20 09:40:39;;;;;;;8.30;6.28;;;18.30;74.40;;;;;;4224098;28;20229;-74
2022/03/20 09:42:42;;;;;;;8.15;6.80;;;18.20;74.30;;;;;;4220885;28;20354;-74
2022/03/20 09:44:44;;;;;;;9.73;6.53;;;18.30;75.30;;;;;;4216833;28;20275;-74
2022/03/20 09:46:47;;;;;;;7.20;6.18;;;18.30;74.40;;;;;;4204375;28;20243;-74
2022/03/20 09:48:52;;;;;;;8.00;6.43;;;18.30;74.60;;;;;;4208061;28;20267;-74
2022/03/20 09:50:55;;;;;;;6.60;5.90;;;18.30;74.60;;;;;;4220579;27;20210;-74
2022/03/20 09:52:57;;;;;;;7.60;6.65;;;18.30;74.50;;;;;;4224646;27;20241;-74
2022/03/20 09:55:00;;;;;;;7.15;6.43;;;18.30;75.50;;;;;;4222395;28;20217;-74
2022/03/20 09:57:05;;;;;;;6.43;5.75;;;18.30;74.70;;;;;;4220356;28;20282;-74
2022/03/20 09:59:08;;;;;;;8.40;6.95;;;18.30;74.70;;;;;;4215388;28;20226;-74
2022/03/20 10:01:10;;;;;;;7.65;6.30;;;18.30;74.70;;;;;;4217505;28;20211;-74
2022/03/20 10:03:16;;;;;;;7.90;6.95;;;18.30;74.80;;;;;;4219743;28;20319;-74
2022/03/20 10:05:22;;;;;;;7.25;5.97;;;18.30;74.80;;;;;;4218870;28;20214;-74
2022/03/20 10:07:26;;;;;;;9.23;6.65;;;18.30;74.90;;;;;;4219032;28;20630;-74
2022/03/20 10:09:29;;;;;;;6.72;6.05;;;18.30;74.80;;;;;;4220974;28;20217;-74
2022/03/20 10:11:32;;;;;;;7.13;5.88;;;18.30;75.00;;;;;;4218607;28;20214;-74
2022/03/20 10:13:34;;;;;;;7.45;6.35;;;18.30;74.90;;;;;;4216132;28;21115;-74
2022/03/20 10:15:38;;;;;;;7.90;6.53;;;18.30;74.90;;;;;;4218699;28;20291;-74
2022/03/20 10:17:40;;;;;;;8.07;6.75;;;18.30;75.00;;;;;;4217378;28;20218;-74
2022/03/20 10:19:43;;;;;;;7.72;6.88;;;18.30;75.00;;;;;;4219087;28;20215;-74
2022/03/20 10:21:47;;;;;;;7.18;6.47;;;18.30;75.00;;;;;;4218369;28;20222;-74
2022/03/20 10:23:50;;;;;;;6.93;6.03;;;18.30;75.00;;;;;;4219118;28;20270;-74
2022/03/20 10:25:52;;;;;;;7.97;5.97;;;18.30;75.10;;;;;;4222614;28;20271;-74
2022/03/20 10:28:00;;;;;;;8.73;6.97;;;18.30;76.00;;;;;;4213594;28;20210;-74
2022/03/20 10:30:02;;;;;;;7.95;6.60;;;18.30;75.10;;;;;;4220668;28;20221;-74
2022/03/20 10:32:09;;;;;;;7.57;6.30;;;18.30;75.20;;;;;;4220984;28;20270;-74
2022/03/20 10:34:11;;;;;;;8.82;6.65;;;18.30;75.40;;;;;;4223124;28;20241;-74
2022/03/20 10:36:16;;;;;;;7.13;6.32;;;18.30;75.20;;;;;;4222159;28;20229;-74
2022/03/20 10:38:36;;;;;;;7.43;6.63;;;18.30;75.20;;;;;;4218258;28;20291;-74
2022/03/20 10:40:38;;;;;;;7.05;6.35;;;18.30;75.40;;;;;;4222415;28;20221;-74
2022/03/20 10:42:40;;;;;;;8.93;7.28;;;18.30;75.40;;;;;;4224985;28;20217;-74
2022/03/20 10:44:43;;;;;;;7.57;6.60;;;18.30;75.40;;;;;;4224358;28;20394;-74
2022/03/20 10:46:57;;;;;;;7.45;6.75;;;18.30;75.50;;;;;;4223910;28;20252;-74
2022/03/20 10:49:01;;;;;;;10.50;7.45;;;18.30;75.50;;;;;;4222613;28;20218;-75
2022/03/20 10:51:04;;;;;;;10.75;7.18;;;18.30;75.40;;;;;;4222827;28;20218;-74
2022/03/20 10:53:07;;;;;;;7.55;6.80;;;18.30;75.50;;;;;;4222274;28;20214;-74
2022/03/20 10:55:15;;;;;;;10.65;7.10;;;18.30;75.60;;;;;;4223061;28;20214;-74
2022/03/20 10:57:18;;;;;;;6.93;6.22;;;18.30;75.60;;;;;;4226231;28;20212;-74
2022/03/20 10:59:21;;;;;;;8.70;7.00;;;18.30;75.60;;;;;;4227718;28;20218;-74
2022/03/20 11:01:35;;;;;;;7.07;6.47;;;18.30;75.70;;;;;;4226207;28;20259;-74
2022/03/20 11:03:39;;;;;;;7.82;6.60;;;18.30;75.70;;;;;;4227918;28;20220;-74
2022/03/20 11:05:43;;;;;;;7.90;7.10;;;18.30;75.70;;;;;;4227807;28;20221;-74
2022/03/20 11:07:45;;;;;;;8.65;7.10;;;18.30;75.70;;;;;;4227597;28;20279;-74
2022/03/20 11:09:47;;;;;;;8.50;7.30;;;18.30;75.60;;;;;;4227503;28;20213;-74
2022/03/20 11:11:55;;;;;;;8.05;7.10;;;18.30;75.70;;;;;;4227883;28;20742;-74
2022/03/20 11:14:00;;;;;;;8.13;6.60;;;18.30;75.70;;;;;;4230338;28;20240;-76
2022/03/20 11:16:05;;;;;;;7.57;6.68;;;18.30;75.80;;;;;;4230365;28;20226;-74
2022/03/20 11:18:08;;;;;;;7.95;6.70;;;18.30;75.90;;;;;;4230420;28;20209;-74